sensor_id;sensor_type;location;lat;lon;timestamp;pressure;altitude;pressure_sealevel;temperature;humidity
45872;BME280;32333;55.844;-3.210;2023-12-04T00:01:50;98642.91;;;3.52;100.00
45872;BME280;32333;55.844;-3.210;2023-12-04T00:04:18;98637.52;;;3.00;100.00
45872;BME280;32333;55.844;-3.210;2023-12-04T00:06:45;98638.66;;;2.95;100.00
45872;BME280;32333;55.844;-3.210;2023-12-04T00:09:14;98639.75;;;3.19;100.00
45872;BME280;32333;55.844;-3.210;2023-12-04T00:11:41;98639.52;;;1.02;100.00
45872;BME280;32333;55.844;-3.210;2023-12-04T00:14:36;98636.56;;;2.75;100.00
45872;BME280;32333;55.844;-3.210;2023-12-04T00:17:03;98635.82;;;1.26;100.00
45872;BME280;32333;55.844;-3.210;2023-12-04T00:19:31;98632.58;;;1.86;100.00
45872;BME280;32333;55.844;-3.210;2023-12-04T00:21:58;98636.35;;;1.34;100.00
45872;BME280;32333;55.844;-3.210;2023-12-04T00:24:27;98627.97;;;0.69;100.00
45872;BME280;32333;55.844;-3.210;2023-12-04T00:26:54;98632.71;;;1.62;100.00
45872;BME280;32333;55.844;-3.210;2023-12-04T00:29:22;98624.32;;;1.46;100.00
45872;BME280;32333;55.844;-3.210;2023-12-04T00:31:49;98619.20;;;2.62;100.00
45872;BME280;32333;55.844;-3.210;2023-12-04T00:34:17;98619.02;;;2.65;100.00
45872;BME280;32333;55.844;-3.210;2023-12-04T00:36:45;98614.76;;;2.31;100.00
45872;BME280;32333;55.844;-3.210;2023-12-04T00:39:12;98611.93;;;2.47;100.00
45872;BME280;32333;55.844;-3.210;2023-12-04T00:41:40;98609.51;;;3.51;100.00
45872;BME280;32333;55.844;-3.210;2023-12-04T00:44:35;98610.94;;;3.03;100.00
45872;BME280;32333;55.844;-3.210;2023-12-04T00:47:03;98606.90;;;2.59;100.00
45872;BME280;32333;55.844;-3.210;2023-12-04T00:49:32;98606.62;;;2.24;100.00
45872;BME280;32333;55.844;-3.210;2023-12-04T00:52:01;98604.67;;;2.83;100.00
45872;BME280;32333;55.844;-3.210;2023-12-04T00:54:28;98615.22;;;0.21;100.00
45872;BME280;32333;55.844;-3.210;2023-12-04T00:56:55;98607.77;;;1.96;100.00
45872;BME280;32333;55.844;-3.210;2023-12-04T00:59:24;98601.98;;;2.56;100.00
45872;BME280;32333;55.844;-3.210;2023-12-04T01:01:52;98600.26;;;2.35;100.00
45872;BME280;32333;55.844;-3.210;2023-12-04T01:04:19;98599.18;;;2.79;100.00
45872;BME280;32333;55.844;-3.210;2023-12-04T01:06:47;98602.25;;;3.56;100.00
45872;BME280;32333;55.844;-3.210;2023-12-04T01:09:14;98596.21;;;1.99;100.00
45872;BME280;32333;55.844;-3.210;2023-12-04T01:11:42;98596.78;;;3.36;100.00
45872;BME280;32333;55.844;-3.210;2023-12-04T01:14:35;98597.36;;;3.13;100.00
45872;BME280;32333;55.844;-3.210;2023-12-04T01:17:03;98599.95;;;2.97;100.00
45872;BME280;32333;55.844;-3.210;2023-12-04T01:19:32;98590.77;;;1.93;100.00
45872;BME280;32333;55.844;-3.210;2023-12-04T01:22:00;98588.31;;;2.45;100.00
45872;BME280;32333;55.844;-3.210;2023-12-04T01:24:29;98591.49;;;2.13;100.00
45872;BME280;32333;55.844;-3.210;2023-12-04T01:26:56;98592.11;;;1.69;100.00
45872;BME280;32333;55.844;-3.210;2023-12-04T01:29:25;98590.97;;;2.36;100.00
45872;BME280;32333;55.844;-3.210;2023-12-04T01:31:53;98589.50;;;1.98;100.00
45872;BME280;32333;55.844;-3.210;2023-12-04T01:34:21;98590.92;;;1.80;100.00
45872;BME280;32333;55.844;-3.210;2023-12-04T01:36:48;98590.71;;;2.02;100.00
45872;BME280;32333;55.844;-3.210;2023-12-04T01:39:15;98588.16;;;1.48;100.00
45872;BME280;32333;55.844;-3.210;2023-12-04T01:41:42;98585.35;;;2.22;100.00
45872;BME280;32333;55.844;-3.210;2023-12-04T01:44:36;98589.49;;;1.44;100.00
45872;BME280;32333;55.844;-3.210;2023-12-04T01:47:04;98592.53;;;2.79;100.00
45872;BME280;32333;55.844;-3.210;2023-12-04T01:49:31;98592.83;;;2.87;100.00
45872;BME280;32333;55.844;-3.210;2023-12-04T01:51:59;98590.52;;;2.43;100.00
45872;BME280;32333;55.844;-3.210;2023-12-04T01:54:26;98589.66;;;2.59;100.00
45872;BME280;32333;55.844;-3.210;2023-12-04T01:56:54;98590.42;;;2.78;100.00
45872;BME280;32333;55.844;-3.210;2023-12-04T01:59:22;98585.56;;;3.13;100.00
45872;BME280;32333;55.844;-3.210;2023-12-04T02:01:50;98584.52;;;2.22;100.00
45872;BME280;32333;55.844;-3.210;2023-12-04T02:04:19;98583.49;;;3.69;100.00
45872;BME280;32333;55.844;-3.210;2023-12-04T02:06:46;98583.59;;;3.02;100.00
45872;BME280;32333;55.844;-3.210;2023-12-04T02:09:15;98582.43;;;2.92;100.00
45872;BME280;32333;55.844;-3.210;2023-12-04T02:11:42;98584.28;;;2.77;100.00
45872;BME280;32333;55.844;-3.210;2023-12-04T02:14:36;98583.67;;;2.54;100.00
45872;BME280;32333;55.844;-3.210;2023-12-04T02:17:05;98584.08;;;2.30;100.00
45872;BME280;32333;55.844;-3.210;2023-12-04T02:19:34;98585.78;;;3.35;100.00
45872;BME280;32333;55.844;-3.210;2023-12-04T02:22:02;98580.62;;;3.09;100.00
45872;BME280;32333;55.844;-3.210;2023-12-04T02:24:29;98576.93;;;2.51;100.00
45872;BME280;32333;55.844;-3.210;2023-12-04T02:27:02;98569.72;;;3.20;100.00
45872;BME280;32333;55.844;-3.210;2023-12-04T02:29:39;98574.01;;;3.32;100.00
45872;BME280;32333;55.844;-3.210;2023-12-04T02:32:11;98576.28;;;2.37;100.00
45872;BME280;32333;55.844;-3.210;2023-12-04T02:34:42;98575.63;;;3.02;100.00
45872;BME280;32333;55.844;-3.210;2023-12-04T02:37:10;98574.43;;;2.57;100.00
45872;BME280;32333;55.844;-3.210;2023-12-04T02:39:39;98569.27;;;3.73;100.00
45872;BME280;32333;55.844;-3.210;2023-12-04T02:44:34;98575.25;;;3.16;100.00
45872;BME280;32333;55.844;-3.210;2023-12-04T02:47:03;98573.13;;;3.74;100.00
45872;BME280;32333;55.844;-3.210;2023-12-04T02:49:31;98570.86;;;2.97;100.00
45872;BME280;32333;55.844;-3.210;2023-12-04T02:51:59;98572.78;;;2.01;100.00
45872;BME280;32333;55.844;-3.210;2023-12-04T02:54:26;98569.89;;;1.46;100.00
45872;BME280;32333;55.844;-3.210;2023-12-04T02:56:54;98566.83;;;2.39;100.00
45872;BME280;32333;55.844;-3.210;2023-12-04T02:59:21;98567.12;;;1.30;100.00
45872;BME280;32333;55.844;-3.210;2023-12-04T03:01:49;98566.73;;;2.08;100.00
45872;BME280;32333;55.844;-3.210;2023-12-04T03:04:18;98562.87;;;2.10;100.00
45872;BME280;32333;55.844;-3.210;2023-12-04T03:06:46;98563.60;;;2.89;100.00
45872;BME280;32333;55.844;-3.210;2023-12-04T03:09:14;98562.41;;;1.11;100.00
45872;BME280;32333;55.844;-3.210;2023-12-04T03:11:41;98562.84;;;2.65;100.00
45872;BME280;32333;55.844;-3.210;2023-12-04T03:14:35;98560.14;;;3.08;100.00
45872;BME280;32333;55.844;-3.210;2023-12-04T03:17:03;98554.98;;;2.58;100.00
45872;BME280;32333;55.844;-3.210;2023-12-04T03:19:30;98553.65;;;2.65;100.00
45872;BME280;32333;55.844;-3.210;2023-12-04T03:21:57;98551.72;;;1.29;100.00
45872;BME280;32333;55.844;-3.210;2023-12-04T03:24:25;98547.07;;;2.32;100.00
45872;BME280;32333;55.844;-3.210;2023-12-04T03:26:52;98544.33;;;3.00;100.00
45872;BME280;32333;55.844;-3.210;2023-12-04T03:29:19;98544.16;;;3.11;100.00
45872;BME280;32333;55.844;-3.210;2023-12-04T03:31:47;98544.50;;;2.51;100.00
45872;BME280;32333;55.844;-3.210;2023-12-04T03:34:15;98542.07;;;1.49;100.00
45872;BME280;32333;55.844;-3.210;2023-12-04T03:36:43;98532.43;;;3.52;100.00
45872;BME280;32333;55.844;-3.210;2023-12-04T03:39:11;98537.86;;;1.36;100.00
45872;BME280;32333;55.844;-3.210;2023-12-04T03:41:38;98537.13;;;2.26;100.00
45872;BME280;32333;55.844;-3.210;2023-12-04T03:44:34;98532.16;;;1.05;100.00
45872;BME280;32333;55.844;-3.210;2023-12-04T03:47:02;98540.04;;;-0.25;100.00
45872;BME280;32333;55.844;-3.210;2023-12-04T03:49:31;98531.21;;;2.15;100.00
45872;BME280;32333;55.844;-3.210;2023-12-04T03:51:59;98528.18;;;1.30;100.00
45872;BME280;32333;55.844;-3.210;2023-12-04T03:54:26;98527.10;;;0.97;100.00
45872;BME280;32333;55.844;-3.210;2023-12-04T03:56:54;98529.10;;;1.45;100.00
45872;BME280;32333;55.844;-3.210;2023-12-04T03:59:31;98525.45;;;1.99;100.00
45872;BME280;32333;55.844;-3.210;2023-12-04T04:01:59;98531.38;;;0.51;100.00
45872;BME280;32333;55.844;-3.210;2023-12-04T04:04:27;98528.16;;;1.58;100.00
45872;BME280;32333;55.844;-3.210;2023-12-04T04:06:55;98523.69;;;2.11;100.00
45872;BME280;32333;55.844;-3.210;2023-12-04T04:09:22;98519.85;;;2.68;100.00
45872;BME280;32333;55.844;-3.210;2023-12-04T04:11:50;98514.94;;;2.76;100.00
45872;BME280;32333;55.844;-3.210;2023-12-04T04:14:35;98511.15;;;1.79;100.00
45872;BME280;32333;55.844;-3.210;2023-12-04T04:17:03;98513.23;;;0.97;100.00
45872;BME280;32333;55.844;-3.210;2023-12-04T04:19:30;98509.21;;;1.19;100.00
45872;BME280;32333;55.844;-3.210;2023-12-04T04:21:57;98507.37;;;0.91;100.00
45872;BME280;32333;55.844;-3.210;2023-12-04T04:24:25;98508.14;;;-0.86;100.00
45872;BME280;32333;55.844;-3.210;2023-12-04T04:26:53;98508.69;;;-1.00;100.00
45872;BME280;32333;55.844;-3.210;2023-12-04T04:29:20;98503.76;;;-0.88;100.00
45872;BME280;32333;55.844;-3.210;2023-12-04T04:31:48;98502.48;;;-0.37;100.00
45872;BME280;32333;55.844;-3.210;2023-12-04T04:34:15;98505.06;;;-0.04;100.00
45872;BME280;32333;55.844;-3.210;2023-12-04T04:36:43;98504.92;;;0.30;100.00
45872;BME280;32333;55.844;-3.210;2023-12-04T04:39:12;98505.60;;;1.50;100.00
45872;BME280;32333;55.844;-3.210;2023-12-04T04:41:40;98499.85;;;1.22;100.00
45872;BME280;32333;55.844;-3.210;2023-12-04T04:44:36;98498.69;;;1.64;100.00
45872;BME280;32333;55.844;-3.210;2023-12-04T04:47:04;98495.40;;;1.52;100.00
45872;BME280;32333;55.844;-3.210;2023-12-04T04:49:31;98495.97;;;2.31;100.00
45872;BME280;32333;55.844;-3.210;2023-12-04T04:52:00;98488.04;;;1.42;100.00
45872;BME280;32333;55.844;-3.210;2023-12-04T04:54:30;98490.62;;;1.23;100.00
45872;BME280;32333;55.844;-3.210;2023-12-04T04:56:58;98491.40;;;1.71;100.00
45872;BME280;32333;55.844;-3.210;2023-12-04T04:59:25;98493.43;;;0.17;100.00
45872;BME280;32333;55.844;-3.210;2023-12-04T05:01:53;98484.08;;;1.18;100.00
45872;BME280;32333;55.844;-3.210;2023-12-04T05:04:20;98488.25;;;0.46;100.00
45872;BME280;32333;55.844;-3.210;2023-12-04T05:06:49;98485.94;;;0.29;100.00
45872;BME280;32333;55.844;-3.210;2023-12-04T05:09:17;98488.78;;;1.44;100.00
45872;BME280;32333;55.844;-3.210;2023-12-04T05:11:44;98486.55;;;2.01;100.00
45872;BME280;32333;55.844;-3.210;2023-12-04T05:14:36;98491.47;;;2.63;100.00
45872;BME280;32333;55.844;-3.210;2023-12-04T05:17:04;98488.29;;;2.37;100.00
45872;BME280;32333;55.844;-3.210;2023-12-04T05:19:31;98481.38;;;3.06;100.00
45872;BME280;32333;55.844;-3.210;2023-12-04T05:21:59;98484.67;;;1.52;100.00
45872;BME280;32333;55.844;-3.210;2023-12-04T05:24:27;98477.14;;;3.20;100.00
45872;BME280;32333;55.844;-3.210;2023-12-04T05:26:55;98478.63;;;1.70;100.00
45872;BME280;32333;55.844;-3.210;2023-12-04T05:29:22;98476.23;;;2.35;100.00
45872;BME280;32333;55.844;-3.210;2023-12-04T05:31:50;98472.76;;;2.26;100.00
45872;BME280;32333;55.844;-3.210;2023-12-04T05:34:17;98472.12;;;3.45;100.00
45872;BME280;32333;55.844;-3.210;2023-12-04T05:36:45;98472.64;;;2.26;100.00
45872;BME280;32333;55.844;-3.210;2023-12-04T05:39:14;98472.78;;;2.55;100.00
45872;BME280;32333;55.844;-3.210;2023-12-04T05:41:41;98470.84;;;2.88;100.00
45872;BME280;32333;55.844;-3.210;2023-12-04T05:44:36;98471.30;;;3.23;100.00
45872;BME280;32333;55.844;-3.210;2023-12-04T05:47:05;98466.89;;;2.39;100.00
45872;BME280;32333;55.844;-3.210;2023-12-04T05:49:32;98471.20;;;3.24;100.00
45872;BME280;32333;55.844;-3.210;2023-12-04T05:52:01;98469.14;;;3.16;100.00
45872;BME280;32333;55.844;-3.210;2023-12-04T05:54:29;98469.00;;;2.28;100.00
45872;BME280;32333;55.844;-3.210;2023-12-04T05:56:56;98466.79;;;2.97;100.00
45872;BME280;32333;55.844;-3.210;2023-12-04T05:59:23;98465.50;;;3.05;100.00
45872;BME280;32333;55.844;-3.210;2023-12-04T06:01:50;98465.93;;;2.41;100.00
45872;BME280;32333;55.844;-3.210;2023-12-04T06:04:19;98468.30;;;1.69;100.00
45872;BME280;32333;55.844;-3.210;2023-12-04T06:06:46;98464.08;;;2.19;100.00
45872;BME280;32333;55.844;-3.210;2023-12-04T06:09:13;98454.85;;;2.76;100.00
45872;BME280;32333;55.844;-3.210;2023-12-04T06:11:41;98451.61;;;0.86;100.00
45872;BME280;32333;55.844;-3.210;2023-12-04T06:14:34;98455.23;;;1.52;100.00
45872;BME280;32333;55.844;-3.210;2023-12-04T06:17:03;98459.26;;;1.60;100.00
45872;BME280;32333;55.844;-3.210;2023-12-04T06:19:30;98455.49;;;1.09;100.00
45872;BME280;32333;55.844;-3.210;2023-12-04T06:21:58;98459.52;;;1.77;100.00
45872;BME280;32333;55.844;-3.210;2023-12-04T06:24:25;98452.32;;;0.97;100.00
45872;BME280;32333;55.844;-3.210;2023-12-04T06:26:53;98443.12;;;0.86;100.00
45872;BME280;32333;55.844;-3.210;2023-12-04T06:29:21;98438.18;;;0.99;100.00
45872;BME280;32333;55.844;-3.210;2023-12-04T06:31:49;98444.33;;;0.35;100.00
45872;BME280;32333;55.844;-3.210;2023-12-04T06:34:17;98450.19;;;-0.30;100.00
45872;BME280;32333;55.844;-3.210;2023-12-04T06:36:44;98447.52;;;0.36;100.00
45872;BME280;32333;55.844;-3.210;2023-12-04T06:39:13;98435.10;;;1.40;100.00
45872;BME280;32333;55.844;-3.210;2023-12-04T06:41:43;98433.00;;;2.33;100.00
45872;BME280;32333;55.844;-3.210;2023-12-04T06:44:36;98428.05;;;2.54;100.00
45872;BME280;32333;55.844;-3.210;2023-12-04T06:47:04;98428.33;;;2.14;100.00
45872;BME280;32333;55.844;-3.210;2023-12-04T06:49:32;98423.65;;;1.75;100.00
45872;BME280;32333;55.844;-3.210;2023-12-04T06:52:01;98423.02;;;2.17;100.00
45872;BME280;32333;55.844;-3.210;2023-12-04T06:54:28;98424.34;;;1.15;100.00
45872;BME280;32333;55.844;-3.210;2023-12-04T06:56:56;98428.38;;;1.08;100.00
45872;BME280;32333;55.844;-3.210;2023-12-04T06:59:23;98430.40;;;1.11;100.00
45872;BME280;32333;55.844;-3.210;2023-12-04T07:01:52;98429.27;;;1.17;100.00
45872;BME280;32333;55.844;-3.210;2023-12-04T07:04:21;98423.44;;;2.00;100.00
45872;BME280;32333;55.844;-3.210;2023-12-04T07:06:48;98422.25;;;1.17;100.00
45872;BME280;32333;55.844;-3.210;2023-12-04T07:09:17;98424.96;;;0.82;100.00
45872;BME280;32333;55.844;-3.210;2023-12-04T07:11:44;98428.90;;;0.53;100.00
45872;BME280;32333;55.844;-3.210;2023-12-04T07:14:34;98424.09;;;1.00;100.00
45872;BME280;32333;55.844;-3.210;2023-12-04T07:17:02;98425.37;;;1.25;100.00
45872;BME280;32333;55.844;-3.210;2023-12-04T07:19:29;98425.04;;;0.16;100.00
45872;BME280;32333;55.844;-3.210;2023-12-04T07:21:56;98432.28;;;0.18;100.00
45872;BME280;32333;55.844;-3.210;2023-12-04T07:24:24;98442.94;;;0.00;100.00
45872;BME280;32333;55.844;-3.210;2023-12-04T07:26:52;98443.17;;;-0.12;100.00
45872;BME280;32333;55.844;-3.210;2023-12-04T07:29:20;98448.80;;;0.22;100.00
45872;BME280;32333;55.844;-3.210;2023-12-04T07:31:48;98456.12;;;-0.52;100.00
45872;BME280;32333;55.844;-3.210;2023-12-04T07:34:16;98458.09;;;-0.33;100.00
45872;BME280;32333;55.844;-3.210;2023-12-04T07:36:44;98461.81;;;-0.31;100.00
45872;BME280;32333;55.844;-3.210;2023-12-04T07:39:12;98454.41;;;0.23;100.00
45872;BME280;32333;55.844;-3.210;2023-12-04T07:41:40;98447.78;;;0.04;100.00
45872;BME280;32333;55.844;-3.210;2023-12-04T07:44:36;98445.28;;;0.55;100.00
45872;BME280;32333;55.844;-3.210;2023-12-04T07:47:04;98447.97;;;0.51;100.00
45872;BME280;32333;55.844;-3.210;2023-12-04T07:49:31;98451.05;;;0.43;100.00
45872;BME280;32333;55.844;-3.210;2023-12-04T07:51:59;98448.23;;;-0.22;100.00
45872;BME280;32333;55.844;-3.210;2023-12-04T07:54:27;98450.45;;;0.63;100.00
45872;BME280;32333;55.844;-3.210;2023-12-04T07:56:55;98455.83;;;0.66;100.00
45872;BME280;32333;55.844;-3.210;2023-12-04T07:59:22;98452.98;;;0.10;100.00
45872;BME280;32333;55.844;-3.210;2023-12-04T08:01:51;98448.50;;;0.76;100.00
45872;BME280;32333;55.844;-3.210;2023-12-04T08:04:18;98450.42;;;0.27;100.00
45872;BME280;32333;55.844;-3.210;2023-12-04T08:06:46;98457.99;;;-0.32;100.00
45872;BME280;32333;55.844;-3.210;2023-12-04T08:09:13;98459.97;;;0.21;100.00
45872;BME280;32333;55.844;-3.210;2023-12-04T08:11:42;98465.51;;;0.25;100.00
45872;BME280;32333;55.844;-3.210;2023-12-04T08:14:36;98468.88;;;-0.01;100.00
45872;BME280;32333;55.844;-3.210;2023-12-04T08:17:04;98471.72;;;-0.28;100.00
45872;BME280;32333;55.844;-3.210;2023-12-04T08:19:31;98470.38;;;0.87;100.00
45872;BME280;32333;55.844;-3.210;2023-12-04T08:22:00;98474.40;;;0.50;100.00
45872;BME280;32333;55.844;-3.210;2023-12-04T08:24:28;98470.32;;;0.78;100.00
45872;BME280;32333;55.844;-3.210;2023-12-04T08:26:56;98477.40;;;-0.08;100.00
45872;BME280;32333;55.844;-3.210;2023-12-04T08:29:25;98477.05;;;0.43;100.00
45872;BME280;32333;55.844;-3.210;2023-12-04T08:31:52;98484.91;;;-0.29;100.00
45872;BME280;32333;55.844;-3.210;2023-12-04T08:34:20;98483.25;;;0.15;100.00
45872;BME280;32333;55.844;-3.210;2023-12-04T08:36:47;98484.09;;;0.89;100.00
45872;BME280;32333;55.844;-3.210;2023-12-04T08:39:15;98482.57;;;1.02;100.00
45872;BME280;32333;55.844;-3.210;2023-12-04T08:41:45;98486.90;;;0.68;100.00
45872;BME280;32333;55.844;-3.210;2023-12-04T08:44:35;98483.67;;;1.26;100.00
45872;BME280;32333;55.844;-3.210;2023-12-04T08:47:03;98483.92;;;0.18;100.00
45872;BME280;32333;55.844;-3.210;2023-12-04T08:49:30;98496.99;;;0.36;100.00
45872;BME280;32333;55.844;-3.210;2023-12-04T08:51:59;98493.39;;;0.06;100.00
45872;BME280;32333;55.844;-3.210;2023-12-04T08:54:26;98488.41;;;0.44;100.00
45872;BME280;32333;55.844;-3.210;2023-12-04T08:56:54;98489.10;;;0.30;100.00
45872;BME280;32333;55.844;-3.210;2023-12-04T08:59:21;98487.31;;;0.47;100.00
45872;BME280;32333;55.844;-3.210;2023-12-04T09:01:50;98485.63;;;1.05;100.00
45872;BME280;32333;55.844;-3.210;2023-12-04T09:04:18;98486.79;;;1.56;100.00
45872;BME280;32333;55.844;-3.210;2023-12-04T09:06:45;98487.08;;;1.28;100.00
45872;BME280;32333;55.844;-3.210;2023-12-04T09:09:13;98490.12;;;1.94;100.00
45872;BME280;32333;55.844;-3.210;2023-12-04T09:11:41;98490.21;;;1.75;100.00
45872;BME280;32333;55.844;-3.210;2023-12-04T09:14:36;98492.39;;;1.01;100.00
45872;BME280;32333;55.844;-3.210;2023-12-04T09:17:04;98492.70;;;0.67;100.00
45872;BME280;32333;55.844;-3.210;2023-12-04T09:19:31;98492.44;;;0.95;100.00
45872;BME280;32333;55.844;-3.210;2023-12-04T09:21:59;98504.81;;;-0.39;100.00
45872;BME280;32333;55.844;-3.210;2023-12-04T09:24:27;98497.12;;;0.30;100.00
45872;BME280;32333;55.844;-3.210;2023-12-04T09:26:54;98497.25;;;0.63;100.00
45872;BME280;32333;55.844;-3.210;2023-12-04T09:29:22;98499.90;;;0.18;100.00
45872;BME280;32333;55.844;-3.210;2023-12-04T09:31:51;98497.59;;;1.02;100.00
45872;BME280;32333;55.844;-3.210;2023-12-04T09:34:19;98502.46;;;1.20;100.00
45872;BME280;32333;55.844;-3.210;2023-12-04T09:36:46;98503.56;;;0.47;100.00
45872;BME280;32333;55.844;-3.210;2023-12-04T09:39:15;98509.93;;;0.57;100.00
45872;BME280;32333;55.844;-3.210;2023-12-04T09:41:44;98511.88;;;0.85;100.00
45872;BME280;32333;55.844;-3.210;2023-12-04T09:44:37;98515.33;;;0.93;100.00
45872;BME280;32333;55.844;-3.210;2023-12-04T09:47:05;98515.94;;;0.67;100.00
45872;BME280;32333;55.844;-3.210;2023-12-04T09:49:35;98517.11;;;0.15;100.00
45872;BME280;32333;55.844;-3.210;2023-12-04T09:52:03;98518.00;;;1.12;100.00
45872;BME280;32333;55.844;-3.210;2023-12-04T09:54:35;98515.89;;;1.08;100.00
45872;BME280;32333;55.844;-3.210;2023-12-04T09:57:03;98519.27;;;1.52;100.00
45872;BME280;32333;55.844;-3.210;2023-12-04T09:59:32;98522.07;;;1.02;100.00
45872;BME280;32333;55.844;-3.210;2023-12-04T10:02:00;98523.42;;;1.40;100.00
45872;BME280;32333;55.844;-3.210;2023-12-04T10:04:28;98520.53;;;1.33;100.00
45872;BME280;32333;55.844;-3.210;2023-12-04T10:06:55;98526.77;;;1.64;100.00
45872;BME280;32333;55.844;-3.210;2023-12-04T10:09:23;98518.20;;;1.84;100.00
45872;BME280;32333;55.844;-3.210;2023-12-04T10:11:51;98514.91;;;1.87;100.00
45872;BME280;32333;55.844;-3.210;2023-12-04T10:14:36;98516.14;;;2.73;100.00
45872;BME280;32333;55.844;-3.210;2023-12-04T10:17:14;98523.84;;;1.56;100.00
45872;BME280;32333;55.844;-3.210;2023-12-04T10:19:41;98527.23;;;1.39;100.00
45872;BME280;32333;55.844;-3.210;2023-12-04T10:22:10;98523.97;;;1.32;100.00
45872;BME280;32333;55.844;-3.210;2023-12-04T10:24:38;98525.80;;;1.03;100.00
45872;BME280;32333;55.844;-3.210;2023-12-04T10:27:08;98522.27;;;0.94;100.00
45872;BME280;32333;55.844;-3.210;2023-12-04T10:29:44;98525.80;;;1.09;100.00
45872;BME280;32333;55.844;-3.210;2023-12-04T10:32:12;98530.47;;;1.32;100.00
45872;BME280;32333;55.844;-3.210;2023-12-04T10:34:41;98531.68;;;0.85;100.00
45872;BME280;32333;55.844;-3.210;2023-12-04T10:37:10;98527.67;;;0.95;100.00
45872;BME280;32333;55.844;-3.210;2023-12-04T10:39:46;98524.33;;;1.51;100.00
45872;BME280;32333;55.844;-3.210;2023-12-04T10:44:36;98528.55;;;1.00;100.00
45872;BME280;32333;55.844;-3.210;2023-12-04T10:47:04;98530.95;;;0.75;100.00
45872;BME280;32333;55.844;-3.210;2023-12-04T10:49:32;98529.75;;;0.96;100.00
45872;BME280;32333;55.844;-3.210;2023-12-04T10:52:01;98526.53;;;0.75;100.00
45872;BME280;32333;55.844;-3.210;2023-12-04T10:54:28;98526.38;;;1.08;100.00
45872;BME280;32333;55.844;-3.210;2023-12-04T10:57:00;98531.36;;;1.10;100.00
45872;BME280;32333;55.844;-3.210;2023-12-04T10:59:34;98535.28;;;0.80;100.00
45872;BME280;32333;55.844;-3.210;2023-12-04T11:02:05;98530.79;;;0.13;100.00
45872;BME280;32333;55.844;-3.210;2023-12-04T11:04:36;98532.93;;;0.58;100.00
45872;BME280;32333;55.844;-3.210;2023-12-04T11:07:03;98531.09;;;0.08;100.00
45872;BME280;32333;55.844;-3.210;2023-12-04T11:09:35;98534.98;;;-0.02;100.00
45872;BME280;32333;55.844;-3.210;2023-12-04T11:14:41;98524.60;;;1.05;100.00
45872;BME280;32333;55.844;-3.210;2023-12-04T11:17:13;98522.84;;;1.03;100.00
45872;BME280;32333;55.844;-3.210;2023-12-04T11:19:50;98520.61;;;0.80;100.00
45872;BME280;32333;55.844;-3.210;2023-12-04T11:22:21;98520.95;;;-0.00;100.00
45872;BME280;32333;55.844;-3.210;2023-12-04T11:24:49;98525.82;;;-0.36;100.00
45872;BME280;32333;55.844;-3.210;2023-12-04T11:27:17;98525.19;;;-0.46;100.00
45872;BME280;32333;55.844;-3.210;2023-12-04T11:29:45;98525.83;;;-0.12;100.00
45872;BME280;32333;55.844;-3.210;2023-12-04T11:32:14;98515.33;;;0.10;100.00
45872;BME280;32333;55.844;-3.210;2023-12-04T11:34:50;98514.81;;;-0.73;100.00
45872;BME280;32333;55.844;-3.210;2023-12-04T11:37:20;98513.07;;;-0.07;100.00
45872;BME280;32333;55.844;-3.210;2023-12-04T11:39:49;98504.47;;;0.85;100.00
45872;BME280;32333;55.844;-3.210;2023-12-04T11:44:36;98503.79;;;0.03;100.00
45872;BME280;32333;55.844;-3.210;2023-12-04T11:47:05;98498.92;;;0.36;100.00
45872;BME280;32333;55.844;-3.210;2023-12-04T11:49:34;98507.43;;;0.27;100.00
45872;BME280;32333;55.844;-3.210;2023-12-04T11:52:03;98500.75;;;-0.18;100.00
45872;BME280;32333;55.844;-3.210;2023-12-04T11:54:56;98502.66;;;-0.36;100.00
45872;BME280;32333;55.844;-3.210;2023-12-04T11:57:24;98493.99;;;-0.04;100.00
45872;BME280;32333;55.844;-3.210;2023-12-04T11:59:51;98501.47;;;0.16;100.00
45872;BME280;32333;55.844;-3.210;2023-12-04T12:02:20;98505.37;;;-0.46;100.00
45872;BME280;32333;55.844;-3.210;2023-12-04T12:04:47;98508.77;;;-0.64;100.00
45872;BME280;32333;55.844;-3.210;2023-12-04T12:07:15;98503.18;;;0.24;100.00
45872;BME280;32333;55.844;-3.210;2023-12-04T12:09:42;98502.57;;;0.09;100.00
45872;BME280;32333;55.844;-3.210;2023-12-04T12:14:35;98508.14;;;0.37;100.00
45872;BME280;32333;55.844;-3.210;2023-12-04T12:17:03;98503.55;;;0.29;100.00
45872;BME280;32333;55.844;-3.210;2023-12-04T12:19:30;98504.52;;;0.66;100.00
45872;BME280;32333;55.844;-3.210;2023-12-04T12:21:59;98503.71;;;0.49;100.00
45872;BME280;32333;55.844;-3.210;2023-12-04T12:24:26;98498.86;;;0.83;100.00
45872;BME280;32333;55.844;-3.210;2023-12-04T12:26:55;98503.90;;;0.67;100.00
45872;BME280;32333;55.844;-3.210;2023-12-04T12:29:24;98498.24;;;0.48;100.00
45872;BME280;32333;55.844;-3.210;2023-12-04T12:31:52;98501.30;;;0.53;100.00
45872;BME280;32333;55.844;-3.210;2023-12-04T12:34:19;98503.26;;;-0.31;100.00
45872;BME280;32333;55.844;-3.210;2023-12-04T12:36:49;98502.68;;;1.07;100.00
45872;BME280;32333;55.844;-3.210;2023-12-04T12:39:16;98511.45;;;0.65;100.00
45872;BME280;32333;55.844;-3.210;2023-12-04T12:41:47;98510.72;;;0.39;100.00
45872;BME280;32333;55.844;-3.210;2023-12-04T12:44:38;98504.26;;;0.77;100.00
45872;BME280;32333;55.844;-3.210;2023-12-04T12:47:05;98516.95;;;0.13;100.00
45872;BME280;32333;55.844;-3.210;2023-12-04T12:49:33;98511.10;;;-0.39;100.00
45872;BME280;32333;55.844;-3.210;2023-12-04T12:52:01;98514.72;;;0.00;100.00
45872;BME280;32333;55.844;-3.210;2023-12-04T12:54:28;98513.50;;;0.28;100.00
45872;BME280;32333;55.844;-3.210;2023-12-04T12:56:56;98514.80;;;-0.00;100.00
45872;BME280;32333;55.844;-3.210;2023-12-04T12:59:25;98512.76;;;0.02;100.00
45872;BME280;32333;55.844;-3.210;2023-12-04T13:01:53;98509.34;;;0.07;100.00
45872;BME280;32333;55.844;-3.210;2023-12-04T13:04:21;98516.86;;;0.11;100.00
45872;BME280;32333;55.844;-3.210;2023-12-04T13:06:50;98511.51;;;-0.18;100.00
45872;BME280;32333;55.844;-3.210;2023-12-04T13:09:19;98511.82;;;0.57;100.00
45872;BME280;32333;55.844;-3.210;2023-12-04T13:11:47;98508.86;;;0.55;100.00
45872;BME280;32333;55.844;-3.210;2023-12-04T13:14:36;98513.20;;;0.41;100.00